createdAt,value
2022-09-25T00:01:17.123Z,12.03
2022-09-25T00:03:44.786Z,10.70
2022-09-25T00:06:17.015Z,10.53
2022-09-25T00:08:45.240Z,9.30
2022-09-25T00:11:18.950Z,8.97
2022-09-25T00:13:47.100Z,9.57
2022-09-25T00:16:20.586Z,10.97
2022-09-25T00:19:06.865Z,11.70
2022-09-25T00:21:35.932Z,13.23
2022-09-25T00:24:09.338Z,10.90
2022-09-25T00:26:41.232Z,10.63
2022-09-25T00:29:13.687Z,10.60
2022-09-25T00:31:41.549Z,12.57
2022-09-25T00:34:10.988Z,9.10
2022-09-25T00:36:39.024Z,9.80
2022-09-25T00:39:06.811Z,10.03
2022-09-25T00:41:34.800Z,10.00
2022-09-25T00:44:03.847Z,11.53
2022-09-25T00:46:44.846Z,11.87
2022-09-25T00:49:20.218Z,15.20
2022-09-25T00:51:56.953Z,14.47
2022-09-25T00:54:31.508Z,12.77
2022-09-25T00:57:03.932Z,10.80
2022-09-25T00:59:36.519Z,9.60
2022-09-25T01:02:04.688Z,10.03
2022-09-25T01:04:38.053Z,9.77
2022-09-25T01:07:09.107Z,11.80
2022-09-25T01:09:36.785Z,10.30
2022-09-25T01:12:05.047Z,10.30
2022-09-25T01:14:34.089Z,11.23
2022-09-25T01:17:16.704Z,11.07
2022-09-25T01:20:14.127Z,14.30
2022-09-25T01:23:06.634Z,11.00
2022-09-25T01:25:46.280Z,11.00
2022-09-25T01:28:32.739Z,10.40
2022-09-25T01:31:09.446Z,13.60
2022-09-25T01:33:51.165Z,9.93
2022-09-25T01:36:27.911Z,10.10
2022-09-25T01:39:21.216Z,10.93
2022-09-25T01:41:58.239Z,11.13
2022-09-25T01:44:44.237Z,11.87
2022-09-25T01:47:23.091Z,10.77
2022-09-25T01:50:00.325Z,12.23
2022-09-25T01:52:35.168Z,11.37
2022-09-25T01:55:16.183Z,11.07
2022-09-25T01:58:03.358Z,10.43
2022-09-25T02:00:32.983Z,10.23
2022-09-25T02:03:18.281Z,10.00
2022-09-25T02:05:50.531Z,10.77
2022-09-25T02:08:24.689Z,10.97
2022-09-25T02:10:57.626Z,11.43
2022-09-25T02:13:28.189Z,11.30
2022-09-25T02:15:59.753Z,15.40
2022-09-25T02:18:47.646Z,10.97
2022-09-25T02:21:23.787Z,13.63
2022-09-25T02:24:03.649Z,10.90
2022-09-25T02:26:34.461Z,12.40
2022-09-25T02:29:02.479Z,9.80
2022-09-25T02:31:36.147Z,13.27
2022-09-25T02:34:03.864Z,14.13
2022-09-25T02:36:33.734Z,12.20
2022-09-25T02:39:03.932Z,14.60
2022-09-25T02:42:13.337Z,15.30
2022-09-25T02:44:58.140Z,16.67
2022-09-25T02:47:37.237Z,15.17
2022-09-25T02:50:37.207Z,13.30
2022-09-25T02:53:11.136Z,12.97
2022-09-25T02:55:56.712Z,11.37
2022-09-25T02:58:45.662Z,12.03
2022-09-25T03:01:16.613Z,12.80
2022-09-25T03:03:47.495Z,12.77
2022-09-25T03:06:15.078Z,15.63
2022-09-25T03:08:47.038Z,11.80
2022-09-25T03:11:17.587Z,11.70
2022-09-25T03:13:46.374Z,12.27
2022-09-25T03:16:40.597Z,11.47
2022-09-25T03:19:08.474Z,11.50
2022-09-25T03:21:36.087Z,11.67
2022-09-25T03:24:04.157Z,10.20
2022-09-25T03:26:32.215Z,11.00
2022-09-25T03:29:02.126Z,11.70
2022-09-25T03:31:30.792Z,10.90
2022-09-25T03:33:58.903Z,10.23
2022-09-25T03:36:28.833Z,12.43
2022-09-25T03:38:58.898Z,14.83
2022-09-25T03:41:31.659Z,18.30
2022-09-25T03:43:59.987Z,16.47
2022-09-25T03:46:30.428Z,17.67
2022-09-25T03:48:58.894Z,14.37
2022-09-25T03:51:28.956Z,15.97
2022-09-25T03:53:56.958Z,14.93
2022-09-25T03:56:27.227Z,14.10
2022-09-25T03:58:55.430Z,15.50
2022-09-25T04:01:25.006Z,13.77
2022-09-25T04:03:53.034Z,14.33
2022-09-25T04:06:24.066Z,14.50
2022-09-25T04:08:53.116Z,14.20
2022-09-25T04:11:23.770Z,14.37
2022-09-25T04:13:52.606Z,14.17
2022-09-25T04:16:21.148Z,13.10
2022-09-25T04:18:50.632Z,13.93
2022-09-25T04:21:18.237Z,13.30
2022-09-25T04:24:06.297Z,13.90
2022-09-25T04:26:34.555Z,11.17
2022-09-25T04:29:03.270Z,12.87
2022-09-25T04:31:32.250Z,12.23
2022-09-25T04:33:59.947Z,12.37
2022-09-25T04:36:27.546Z,13.37
2022-09-25T04:38:55.112Z,13.90
2022-09-25T04:41:22.708Z,12.47
2022-09-25T04:43:50.310Z,12.30
2022-09-25T04:46:22.064Z,13.07
2022-09-25T04:48:50.667Z,13.87
2022-09-25T04:51:18.485Z,18.63
2022-09-25T04:53:46.624Z,14.93
2022-09-25T04:56:16.441Z,20.20
2022-09-25T04:58:46.576Z,16.00
2022-09-25T05:01:14.277Z,13.57
2022-09-25T05:03:43.005Z,11.27
2022-09-25T05:06:10.735Z,11.00
2022-09-25T05:08:38.366Z,12.90
2022-09-25T05:11:07.248Z,13.87
2022-09-25T05:13:34.935Z,14.47
2022-09-25T05:16:02.641Z,16.33
2022-09-25T05:18:30.332Z,15.60
2022-09-25T05:20:58.011Z,15.70
2022-09-25T05:23:25.600Z,17.40
2022-09-25T05:26:00.724Z,17.27
2022-09-25T05:28:32.227Z,13.60
2022-09-25T05:31:04.263Z,12.87
2022-09-25T05:33:33.174Z,12.93
2022-09-25T05:36:05.913Z,10.57
2022-09-25T05:38:35.043Z,12.13
2022-09-25T05:41:04.872Z,16.43
2022-09-25T05:43:33.807Z,13.53
2022-09-25T05:46:01.577Z,11.33
2022-09-25T05:48:29.317Z,11.17
2022-09-25T05:50:58.085Z,11.33
2022-09-25T05:53:26.772Z,13.40
2022-09-25T05:55:58.120Z,11.43
2022-09-25T05:58:27.716Z,11.97
2022-09-25T06:00:55.749Z,12.87
2022-09-25T06:03:23.602Z,13.00
2022-09-25T06:05:51.312Z,11.50
2022-09-25T06:08:19.069Z,13.27
2022-09-25T06:10:52.867Z,11.90
2022-09-25T06:13:21.761Z,11.97
2022-09-25T06:15:52.649Z,11.67
2022-09-25T06:18:22.191Z,11.30
2022-09-25T06:20:51.205Z,11.43
2022-09-25T06:23:19.167Z,11.47
2022-09-25T06:25:46.870Z,10.50
2022-09-25T06:28:14.502Z,11.07
2022-09-25T06:30:42.297Z,11.33
2022-09-25T06:33:12.891Z,11.53
2022-09-25T06:35:46.178Z,10.40
2022-09-25T06:38:15.724Z,10.23
2022-09-25T06:40:44.046Z,10.03
2022-09-25T06:43:15.414Z,8.83
2022-09-25T06:45:43.441Z,9.13
2022-09-25T06:48:15.970Z,9.03
2022-09-25T06:50:46.474Z,10.17
2022-09-25T06:53:31.829Z,9.20
2022-09-25T07:00:01.293Z,9.17
2022-09-25T07:02:47.724Z,8.70
2022-09-25T07:05:18.672Z,8.77
2022-09-25T07:07:48.581Z,8.10
2022-09-25T07:10:16.271Z,8.17
2022-09-25T07:12:43.828Z,7.90
2022-09-25T07:15:11.875Z,7.80
2022-09-25T07:17:43.447Z,7.73
2022-09-25T07:20:13.963Z,7.27
2022-09-25T07:22:42.338Z,6.63
2022-09-25T07:25:11.520Z,7.10
2022-09-25T07:27:39.099Z,6.43
2022-09-25T07:30:07.894Z,8.47
2022-09-25T07:32:35.939Z,9.30
2022-09-25T07:35:03.639Z,8.13
2022-09-25T07:37:31.384Z,7.93
2022-09-25T07:39:58.914Z,8.13
2022-09-25T07:42:26.502Z,7.97
2022-09-25T07:44:54.349Z,8.90
2022-09-25T07:47:22.107Z,10.30
2022-09-25T07:49:49.689Z,8.53
2022-09-25T07:52:17.285Z,8.40
2022-09-25T07:54:44.870Z,8.47
2022-09-25T07:57:13.270Z,8.63
2022-09-25T07:59:40.847Z,8.13
2022-09-25T08:02:09.848Z,8.37
2022-09-25T08:04:37.497Z,8.00
2022-09-25T08:07:05.665Z,9.33
2022-09-25T08:09:33.248Z,8.20
2022-09-25T08:12:00.917Z,8.73
2022-09-25T08:14:28.929Z,9.10
2022-09-25T08:16:56.493Z,9.00
2022-09-25T08:19:24.272Z,9.10
2022-09-25T08:21:51.847Z,9.53
2022-09-25T08:24:19.445Z,8.70
2022-09-25T08:26:47.115Z,9.70
2022-09-25T08:29:14.672Z,8.87
2022-09-25T08:31:42.301Z,10.10
2022-09-25T08:34:36.264Z,10.20
2022-09-25T08:36:58.342Z,9.60
2022-09-25T08:39:25.910Z,10.43
2022-09-25T08:41:56.447Z,11.20
2022-09-25T08:44:30.130Z,11.43
2022-09-25T08:47:42.562Z,10.50
2022-09-25T08:50:24.686Z,11.83
2022-09-25T08:53:15.684Z,10.70
2022-09-25T08:56:02.489Z,10.07
2022-09-25T08:58:33.815Z,10.50
2022-09-25T09:01:05.366Z,12.23
2022-09-25T09:03:36.513Z,10.90
2022-09-25T09:06:10.572Z,10.37
2022-09-25T09:08:40.963Z,10.40
2022-09-25T09:11:27.702Z,10.97
2022-09-25T09:14:03.330Z,10.60
2022-09-25T09:16:54.704Z,12.33
2022-09-25T09:19:22.344Z,10.53
2022-09-25T09:22:12.006Z,9.80
2022-09-25T09:25:07.269Z,11.23
2022-09-25T09:27:48.745Z,10.17
2022-09-25T09:30:39.294Z,12.02
2022-09-25T09:33:29.406Z,9.68
2022-09-25T09:36:09.209Z,9.30
2022-09-25T09:38:49.989Z,9.15
2022-09-25T09:41:50.140Z,8.90
2022-09-25T09:44:50.040Z,9.95
2022-09-25T09:47:39.400Z,10.30
2022-09-25T09:50:33.401Z,9.00
2022-09-25T09:53:05.730Z,10.20
2022-09-25T09:55:45.144Z,11.10
2022-09-25T09:58:21.511Z,10.05
2022-09-25T10:00:50.079Z,10.17
2022-09-25T10:03:25.260Z,9.13
2022-09-25T10:05:59.571Z,9.23
2022-09-25T10:08:27.231Z,9.03
2022-09-25T10:10:55.076Z,9.25
2022-09-25T10:13:32.410Z,10.20
2022-09-25T10:16:08.514Z,8.75
2022-09-25T10:18:43.112Z,10.63
2022-09-25T10:21:20.238Z,9.10
2022-09-25T10:23:56.094Z,8.60
2022-09-25T10:26:36.442Z,8.43
2022-09-25T10:29:10.120Z,8.03
2022-09-25T10:31:40.059Z,7.90
2022-09-25T10:34:13.665Z,8.60
2022-09-25T10:36:47.750Z,7.47
2022-09-25T10:39:43.631Z,8.77
2022-09-25T10:42:34.434Z,7.43
2022-09-25T10:45:32.186Z,7.60
2022-09-25T10:48:18.593Z,8.90
2022-09-25T10:51:06.591Z,8.43
2022-09-25T10:53:34.462Z,8.80
2022-09-25T10:56:12.496Z,9.27
2022-09-25T10:58:49.007Z,8.23
2022-09-25T11:01:17.247Z,8.20
2022-09-25T11:03:47.472Z,8.10
2022-09-25T11:06:26.017Z,6.97
2022-09-25T11:09:10.930Z,5.93
2022-09-25T11:11:40.866Z,5.90
2022-09-25T11:14:19.298Z,5.57
2022-09-25T11:16:53.847Z,6.93
2022-09-25T11:19:33.317Z,5.93
2022-09-25T11:22:34.967Z,5.93
2022-09-25T11:25:17.600Z,4.73
2022-09-25T11:27:54.167Z,4.33
2022-09-25T11:30:23.880Z,5.87
2022-09-25T11:33:06.553Z,4.93
2022-09-25T11:35:42.712Z,3.70
2022-09-25T11:38:17.712Z,4.00
2022-09-25T11:41:16.531Z,4.10
2022-09-25T11:44:12.840Z,3.60
2022-09-25T11:47:11.607Z,4.07
2022-09-25T11:49:41.466Z,4.20
2022-09-25T11:52:51.318Z,4.03
2022-09-25T11:55:34.765Z,4.00
2022-09-25T11:58:39.968Z,4.90
2022-09-25T12:01:25.048Z,3.83
2022-09-25T12:03:58.576Z,3.37
2022-09-25T12:07:00.334Z,4.73
2022-09-25T12:09:30.688Z,3.97
2022-09-25T12:12:29.610Z,3.63
2022-09-25T12:15:03.456Z,3.93
2022-09-25T12:17:39.254Z,4.26
2022-09-25T12:20:26.035Z,4.33
2022-09-25T12:23:08.647Z,4.93
2022-09-25T12:25:57.338Z,4.70
2022-09-25T12:28:52.286Z,5.03
2022-09-25T12:32:07.111Z,3.53
2022-09-25T12:34:50.729Z,3.53
2022-09-25T12:37:32.671Z,3.37
2022-09-25T12:40:05.695Z,4.33
2022-09-25T12:42:54.386Z,5.00
2022-09-25T12:45:38.184Z,4.33
2022-09-25T12:48:46.092Z,4.20
2022-09-25T12:51:22.542Z,4.70
2022-09-25T12:53:57.272Z,7.40
2022-09-25T12:56:27.683Z,6.83
2022-09-25T12:59:26.121Z,5.73
2022-09-25T13:01:53.888Z,6.83
2022-09-25T13:04:35.071Z,6.00
2022-09-25T13:07:14.442Z,4.70
2022-09-25T13:09:44.867Z,8.00
2022-09-25T13:12:27.424Z,6.50
2022-09-25T13:15:16.030Z,6.43
2022-09-25T13:17:44.097Z,8.27
2022-09-25T13:20:27.012Z,11.47
2022-09-25T13:22:59.670Z,12.93
2022-09-25T13:25:27.903Z,6.60
2022-09-25T13:28:05.282Z,8.90
2022-09-25T13:30:33.275Z,6.23
2022-09-25T13:33:03.282Z,10.87
2022-09-25T13:35:33.721Z,8.67
2022-09-25T13:38:34.714Z,7.67
2022-09-25T13:41:10.613Z,12.63
2022-09-25T13:43:38.492Z,6.20
2022-09-25T13:46:15.865Z,7.47
2022-09-25T13:48:43.926Z,7.03
2022-09-25T13:51:20.861Z,6.67
2022-09-25T13:54:24.079Z,7.60
2022-09-25T13:56:54.655Z,8.97
2022-09-25T13:59:43.864Z,6.57
2022-09-25T14:02:37.032Z,7.47
2022-09-25T14:05:05.856Z,7.23
2022-09-25T14:07:34.872Z,8.53
2022-09-25T14:10:04.288Z,8.93
2022-09-25T14:12:48.216Z,4.97
2022-09-25T14:15:38.163Z,6.93
2022-09-25T14:18:18.199Z,7.23
2022-09-25T14:20:49.334Z,7.30
2022-09-25T14:23:25.449Z,4.87
2022-09-25T14:26:06.667Z,6.17
2022-09-25T14:28:45.034Z,8.60
2022-09-25T14:31:43.337Z,6.57
2022-09-25T14:34:20.044Z,8.57
2022-09-25T14:37:18.492Z,13.23
2022-09-25T14:39:58.267Z,4.73
2022-09-25T14:42:51.226Z,6.57
2022-09-25T14:45:24.624Z,7.07
2022-09-25T14:47:55.255Z,8.73
2022-09-25T14:50:50.274Z,7.23
2022-09-25T14:53:33.482Z,7.23
2022-09-25T14:56:02.942Z,5.30
2022-09-25T14:58:32.718Z,5.70
2022-09-25T15:01:17.841Z,6.00
2022-09-25T15:03:48.802Z,7.47
2022-09-25T15:06:28.365Z,6.27
2022-09-25T15:08:56.218Z,5.93
2022-09-25T15:11:29.565Z,8.40
2022-09-25T15:14:12.029Z,7.97
2022-09-25T15:16:58.546Z,4.97
2022-09-25T15:19:33.061Z,8.27
2022-09-25T15:22:01.192Z,9.43
2022-09-25T15:24:31.533Z,5.50
2022-09-25T15:27:03.909Z,8.83
2022-09-25T15:29:36.603Z,10.03
2022-09-25T15:32:05.832Z,5.87
2022-09-25T15:34:33.704Z,6.90
2022-09-25T15:37:27.566Z,9.73
2022-09-25T15:39:56.239Z,6.70
2022-09-25T15:42:24.800Z,7.83
2022-09-25T15:44:53.624Z,7.83
2022-09-25T15:47:49.761Z,5.10
2022-09-25T15:50:23.819Z,7.07
2022-09-25T15:52:53.980Z,5.70
2022-09-25T15:55:22.244Z,9.43
2022-09-25T15:57:52.642Z,8.80
2022-09-25T16:00:45.212Z,7.90
2022-09-25T16:03:47.504Z,6.83
2022-09-25T16:06:18.402Z,6.13
2022-09-25T16:08:48.925Z,7.53
2022-09-25T16:11:25.259Z,9.57
2022-09-25T16:14:12.000Z,9.60
2022-09-25T16:16:47.290Z,6.70
2022-09-25T16:19:27.309Z,7.77
2022-09-25T16:21:55.669Z,5.63
2022-09-25T16:24:26.422Z,8.67
2022-09-25T16:27:04.690Z,6.00
2022-09-25T16:29:36.473Z,10.07
2022-09-25T16:32:07.362Z,11.73
2022-09-25T16:34:38.607Z,9.00
2022-09-25T16:37:17.948Z,8.67
2022-09-25T16:39:45.553Z,5.40
2022-09-25T16:42:26.632Z,7.10
2022-09-25T16:45:04.368Z,5.30
2022-09-25T16:47:34.215Z,9.03
2022-09-25T16:50:01.852Z,7.23
2022-09-25T16:52:32.062Z,6.77
2022-09-25T16:55:00.985Z,9.90
2022-09-25T16:57:29.228Z,6.97
2022-09-25T16:59:56.930Z,6.63
2022-09-25T17:02:36.876Z,8.30
2022-09-25T17:05:17.475Z,5.50
2022-09-25T17:07:50.066Z,9.77
2022-09-25T17:10:22.694Z,7.80
2022-09-25T17:12:53.963Z,7.77
2022-09-25T17:15:32.847Z,8.60
2022-09-25T17:18:02.012Z,9.53
2022-09-25T17:20:34.047Z,7.70
2022-09-25T17:23:02.090Z,11.70
2022-09-25T17:25:38.590Z,11.47
2022-09-25T17:28:08.240Z,8.67
2022-09-25T17:30:36.742Z,7.90
2022-09-25T17:33:05.435Z,9.07
2022-09-25T17:35:58.908Z,8.67
2022-09-25T17:38:27.254Z,9.43
2022-09-25T17:40:59.396Z,11.50
2022-09-25T17:43:29.346Z,10.13
2022-09-25T17:45:59.131Z,12.93
2022-09-25T17:48:29.102Z,9.23
2022-09-25T17:51:17.025Z,8.70
2022-09-25T17:53:45.256Z,8.10
2022-09-25T17:56:13.037Z,10.60
2022-09-25T17:58:44.109Z,9.50
2022-09-25T18:01:24.541Z,14.30
2022-09-25T18:04:00.804Z,13.07
2022-09-25T18:06:30.309Z,8.67
2022-09-25T18:08:57.901Z,13.83
2022-09-25T18:11:26.515Z,13.60
2022-09-25T18:13:56.958Z,10.13
2022-09-25T18:16:29.509Z,11.37
2022-09-25T18:19:16.567Z,11.30
2022-09-25T18:22:02.849Z,13.93
2022-09-25T18:24:30.651Z,10.00
2022-09-25T18:26:58.629Z,12.37
2022-09-25T18:29:26.317Z,9.23
2022-09-25T18:31:54.030Z,11.53
2022-09-25T18:34:22.737Z,10.67
2022-09-25T18:36:50.453Z,9.00
2022-09-25T18:39:20.287Z,7.23
2022-09-25T18:41:48.330Z,8.60
2022-09-25T18:44:17.842Z,8.73
2022-09-25T18:46:45.684Z,11.97
2022-09-25T18:49:13.415Z,9.00
2022-09-25T18:51:41.313Z,11.67
2022-09-25T18:54:15.265Z,8.87
2022-09-25T18:56:42.928Z,8.87
2022-09-25T18:59:10.818Z,9.53
2022-09-25T19:01:39.978Z,10.53
2022-09-25T19:04:08.115Z,9.93
2022-09-25T19:06:35.847Z,9.80
2022-09-25T19:09:05.029Z,10.23
2022-09-25T19:11:32.844Z,10.13
2022-09-25T19:14:01.527Z,8.50
2022-09-25T19:16:31.899Z,8.13
2022-09-25T19:19:01.908Z,9.73
2022-09-25T19:21:31.353Z,6.43
2022-09-25T19:23:58.973Z,7.83
2022-09-25T19:26:26.677Z,8.20
2022-09-25T19:28:54.648Z,8.97
2022-09-25T19:31:24.846Z,7.67
2022-09-25T19:33:53.454Z,10.37
2022-09-25T19:36:24.491Z,6.03
2022-09-25T19:38:53.575Z,7.53
2022-09-25T19:41:26.347Z,6.90
2022-09-25T19:43:58.989Z,8.83
2022-09-25T19:46:27.855Z,4.70
2022-09-25T19:48:55.787Z,5.93
2022-09-25T19:51:24.388Z,6.77
2022-09-25T19:53:52.982Z,11.10
2022-09-25T19:56:21.216Z,9.70
2022-09-25T19:58:50.800Z,9.83
2022-09-25T20:01:22.210Z,7.73
2022-09-25T20:03:50.020Z,6.77
2022-09-25T20:06:17.736Z,7.57
2022-09-25T20:08:45.914Z,8.90
2022-09-25T20:11:19.669Z,6.00
2022-09-25T20:13:48.619Z,10.10
2022-09-25T20:16:18.935Z,7.40
2022-09-25T20:19:02.700Z,7.97
2022-09-25T20:21:34.723Z,5.70
2022-09-25T20:24:04.402Z,7.33
2022-09-25T20:26:32.749Z,6.07
2022-09-25T20:29:02.635Z,8.17
2022-09-25T20:31:32.575Z,5.97
2022-09-25T20:34:00.444Z,8.37
2022-09-25T20:36:28.096Z,6.37
2022-09-25T20:38:57.020Z,6.23
2022-09-25T20:41:25.999Z,7.10
2022-09-25T20:43:56.627Z,6.57
2022-09-25T20:46:26.323Z,8.20
2022-09-25T20:48:57.484Z,4.00
2022-09-25T20:51:27.867Z,8.47
2022-09-25T20:53:58.107Z,6.97
2022-09-25T20:56:26.973Z,7.10
2022-09-25T20:58:55.669Z,5.70
2022-09-25T21:01:27.214Z,5.87
2022-09-25T21:03:55.398Z,3.67
2022-09-25T21:06:25.440Z,6.67
2022-09-25T21:08:55.501Z,7.17
2022-09-25T21:11:24.538Z,6.00
2022-09-25T21:13:54.000Z,6.23
2022-09-25T21:16:22.930Z,7.83
2022-09-25T21:18:56.313Z,7.70
2022-09-25T21:21:25.075Z,6.53
2022-09-25T21:23:54.820Z,8.20
2022-09-25T21:26:25.573Z,7.30
2022-09-25T21:28:54.933Z,10.80
2022-09-25T21:31:25.364Z,6.53
2022-09-25T21:33:55.089Z,7.00
2022-09-25T21:36:23.386Z,6.87
2022-09-25T21:38:51.254Z,6.57
2022-09-25T21:41:21.659Z,8.23
2022-09-25T21:43:53.414Z,9.10
2022-09-25T21:46:21.483Z,8.93
2022-09-25T21:48:58.042Z,7.53
2022-09-25T21:51:29.323Z,7.33
2022-09-25T21:53:57.315Z,7.53
2022-09-25T21:56:26.736Z,8.37
2022-09-25T21:58:55.835Z,6.90
2022-09-25T22:01:35.893Z,7.03
2022-09-25T22:04:05.225Z,7.70
2022-09-25T22:06:35.563Z,12.03
2022-09-25T22:09:18.430Z,6.70
2022-09-25T22:11:47.714Z,11.70
2022-09-25T22:14:16.751Z,8.87
2022-09-25T22:16:46.896Z,5.10
2022-09-25T22:19:23.721Z,5.90
2022-09-25T22:21:52.401Z,8.47
2022-09-25T22:24:20.566Z,5.03
2022-09-25T22:26:49.432Z,8.93
2022-09-25T22:29:17.544Z,6.97
2022-09-25T22:31:45.131Z,7.70
2022-09-25T22:34:22.976Z,6.77
2022-09-25T22:36:56.228Z,6.17
2022-09-25T22:39:27.169Z,8.33
2022-09-25T22:41:55.919Z,5.07
2022-09-25T22:44:24.192Z,7.37
2022-09-25T22:46:51.811Z,10.40
2022-09-25T22:49:19.486Z,5.93
2022-09-25T22:51:47.025Z,6.17
2022-09-25T22:54:15.342Z,8.57
2022-09-25T22:56:43.998Z,8.23
2022-09-25T22:59:17.755Z,6.97
2022-09-25T23:01:51.296Z,6.50
2022-09-25T23:04:22.236Z,6.83
2022-09-25T23:06:55.629Z,4.27
2022-09-25T23:09:25.910Z,7.00
2022-09-25T23:11:55.518Z,6.00
2022-09-25T23:14:28.181Z,7.40
2022-09-25T23:16:55.869Z,6.83
2022-09-25T23:19:24.585Z,7.10
2022-09-25T23:21:54.021Z,8.37
2022-09-25T23:24:23.626Z,6.47
2022-09-25T23:26:52.003Z,6.43
2022-09-25T23:29:21.467Z,3.87
2022-09-25T23:31:51.661Z,7.60
2022-09-25T23:34:19.708Z,6.40
2022-09-25T23:36:47.258Z,7.07
2022-09-25T23:39:17.569Z,6.77
2022-09-25T23:41:45.484Z,5.40
2022-09-25T23:44:13.249Z,5.47
2022-09-25T23:46:42.470Z,9.73
2022-09-25T23:49:11.418Z,5.23
2022-09-25T23:51:39.271Z,5.67
2022-09-25T23:54:07.465Z,6.50
2022-09-25T23:56:36.143Z,7.33
2022-09-25T23:59:04.613Z,4.87
